Terminal Aerodrome Forecast
Issued by NWS Cleveland, OH

Home | Current Version | Previous Version | Text Only | Print | Product List | Glossary Off
Versions: 1 2 3 4 5 6 7 8 9 10 11 12 13 14 15 16 17 18

000
FTUS41 KCLE 192340
TAFYNG
TAF
KYNG 192340Z 2000/2024 20006KT P6SM VCSH SCT025 BKN050
      TEMPO 2001/2004 3SM -TSRA BKN015CB OVC025
     FM200400 23008KT P6SM SCT015 OVC035
     FM200700 29009KT P6SM OVC007
     FM201800 33008KT P6SM BKN035
     FM202100 33008KT P6SM SCT040=

USA.gov is the U.S. government's official web portal to all federal, state and local government web resources and services.